BAW213 EGLL-KBOS
Flight info
| Callsign | BAW213 |
|---|---|
| Flight time | N/A |
| Altitude | 40000 |
| Route | CPT L9 BUCGO DCT FELCA DCT NICXI DCT BAKUR DCT DOGAL/M084F400 NATD NEEKO/N0486F400 N616B TOPPS DCT AJJAY OOSHN5 |
| Aircraft | A388/J-SADE2E3FGHIJ3J4J5M1RWXY/LB1D1 |
Departure
| Time | 2026-05-05 11:31 |
|---|---|
| Airport | London Heathrow Airport (EGLL) |
Arrival
| Time | N/A |
|---|---|
| Airport | Boston Logan International Airport (KBOS) |
| Time | Latitude | Longitude | Altitude | Speed | Heading |
|---|---|---|---|---|---|
| 2026-05-05 10:54 | 51.47221 | -0.47733 | 91 ft | 0 kts | 89° |
| 2026-05-05 11:22 | 51.47221 | -0.47770 | 94 ft | 4 kts | 89° |
| 2026-05-05 11:22 | 51.47220 | -0.47805 | 93 ft | 3 kts | 90° |
| 2026-05-05 11:22 | 51.47223 | -0.47843 | 94 ft | 4 kts | 111° |
| 2026-05-05 11:23 | 51.47233 | -0.47866 | 94 ft | 4 kts | 151° |
| 2026-05-05 11:23 | 51.47251 | -0.47871 | 94 ft | 4 kts | 179° |
| 2026-05-05 11:23 | 51.47278 | -0.47871 | 91 ft | 3 kts | 179° |
| 2026-05-05 11:23 | 51.47283 | -0.47871 | 91 ft | 0 kts | 179° |
| 2026-05-05 11:26 | 51.47249 | -0.47871 | 91 ft | 14 kts | 179° |
| 2026-05-05 11:26 | 51.47133 | -0.47870 | 91 ft | 19 kts | 179° |
| 2026-05-05 11:27 | 51.46988 | -0.47869 | 92 ft | 23 kts | 180° |
| 2026-05-05 11:27 | 51.46840 | -0.47867 | 91 ft | 19 kts | 179° |
| 2026-05-05 11:27 | 51.46756 | -0.47869 | 91 ft | 3 kts | 206° |
| 2026-05-05 11:27 | 51.46743 | -0.47947 | 93 ft | 11 kts | 269° |
| 2026-05-05 11:28 | 51.46743 | -0.48044 | 91 ft | 0 kts | 271° |
| 2026-05-05 11:28 | 51.46743 | -0.48049 | 92 ft | 1 kts | 271° |
| 2026-05-05 11:28 | 51.46743 | -0.48127 | 91 ft | 11 kts | 270° |
| 2026-05-05 11:28 | 51.46743 | -0.48300 | 94 ft | 20 kts | 270° |
| 2026-05-05 11:29 | 51.46743 | -0.48536 | 91 ft | 22 kts | 270° |
| 2026-05-05 11:29 | 51.46741 | -0.48697 | 91 ft | 10 kts | 258° |
| 2026-05-05 11:29 | 51.46709 | -0.48737 | 94 ft | 8 kts | 194° |
| 2026-05-05 11:29 | 51.46648 | -0.48750 | 93 ft | 11 kts | 188° |
| 2026-05-05 11:30 | 51.46574 | -0.48778 | 92 ft | 14 kts | 193° |
| 2026-05-05 11:30 | 51.46489 | -0.48742 | 93 ft | 12 kts | 121° |
| 2026-05-05 11:30 | 51.46479 | -0.48630 | 92 ft | 9 kts | 89° |
| 2026-05-05 11:30 | 51.46479 | -0.48589 | 91 ft | 14 kts | 90° |
| 2026-05-05 11:31 | 51.46480 | -0.47999 | 95 ft | 94 kts | 89° |
| 2026-05-05 11:31 | 51.46486 | -0.46592 | 97 ft | 152 kts | 89° |
| 2026-05-05 11:31 | 51.46488 | -0.44756 | 336 ft | 167 kts | 87° |
| 2026-05-05 11:31 | 51.46456 | -0.42843 | 695 ft | 179 kts | 89° |
| 2026-05-05 11:32 | 51.46386 | -0.40763 | 898 ft | 195 kts | 90° |
| 2026-05-05 11:32 | 51.46077 | -0.38490 | 1093 ft | 229 kts | 116° |
| 2026-05-05 11:32 | 51.44931 | -0.36592 | 1606 ft | 253 kts | 148° |
| 2026-05-05 11:32 | 51.43201 | -0.35803 | 2370 ft | 263 kts | 179° |
| 2026-05-05 11:33 | 51.41432 | -0.36422 | 3245 ft | 269 kts | 207° |
| 2026-05-05 11:33 | 51.39986 | -0.38320 | 4059 ft | 273 kts | 235° |
| 2026-05-05 11:33 | 51.39232 | -0.41098 | 4917 ft | 277 kts | 262° |
| 2026-05-05 11:33 | 51.39300 | -0.44167 | 5804 ft | 275 kts | 281° |
| 2026-05-05 11:34 | 51.39614 | -0.47219 | 6683 ft | 278 kts | 280° |
| 2026-05-05 11:34 | 51.39951 | -0.50271 | 7519 ft | 281 kts | 281° |
| 2026-05-05 11:34 | 51.40287 | -0.53386 | 7854 ft | 284 kts | 281° |
| 2026-05-05 11:34 | 51.40624 | -0.56500 | 7962 ft | 283 kts | 281° |
| 2026-05-05 11:35 | 51.40961 | -0.59624 | 7966 ft | 284 kts | 281° |
| 2026-05-05 11:35 | 51.41302 | -0.62733 | 7970 ft | 283 kts | 281° |
| 2026-05-05 11:35 | 51.41640 | -0.65799 | 7968 ft | 283 kts | 281° |
| 2026-05-05 11:35 | 51.41970 | -0.68915 | 7969 ft | 284 kts | 281° |
| 2026-05-05 11:36 | 51.42306 | -0.72030 | 7986 ft | 284 kts | 282° |
| 2026-05-05 11:36 | 51.42974 | -0.74993 | 8188 ft | 285 kts | 297° |
| 2026-05-05 11:36 | 51.43852 | -0.77854 | 9011 ft | 284 kts | 297° |
| 2026-05-05 11:36 | 51.44716 | -0.80708 | 9952 ft | 286 kts | 296° |
| 2026-05-05 11:37 | 51.45592 | -0.83630 | 10457 ft | 301 kts | 297° |
| 2026-05-05 11:37 | 51.46522 | -0.86744 | 10666 ft | 322 kts | 296° |
| 2026-05-05 11:37 | 51.47515 | -0.90082 | 11013 ft | 337 kts | 297° |
| 2026-05-05 11:37 | 51.48527 | -0.93498 | 11684 ft | 341 kts | 297° |
| 2026-05-05 11:38 | 51.49554 | -0.96966 | 12332 ft | 345 kts | 297° |
| 2026-05-05 11:38 | 51.50589 | -1.00468 | 12993 ft | 349 kts | 297° |
| 2026-05-05 11:38 | 51.51622 | -1.03967 | 13645 ft | 354 kts | 297° |
| 2026-05-05 11:38 | 51.52681 | -1.07561 | 14265 ft | 357 kts | 297° |
| 2026-05-05 11:39 | 51.53747 | -1.11181 | 14892 ft | 360 kts | 296° |
| 2026-05-05 11:39 | 51.54815 | -1.14816 | 15494 ft | 363 kts | 296° |
| 2026-05-05 11:39 | 51.55898 | -1.18501 | 16091 ft | 366 kts | 295° |
| 2026-05-05 11:39 | 51.56988 | -1.22221 | 16682 ft | 369 kts | 295° |
| 2026-05-05 11:40 | 51.58084 | -1.25964 | 17295 ft | 372 kts | 295° |
| 2026-05-05 11:40 | 51.59189 | -1.29750 | 17859 ft | 375 kts | 295° |
| 2026-05-05 11:40 | 51.60302 | -1.33566 | 18409 ft | 378 kts | 294° |
| 2026-05-05 11:40 | 51.61422 | -1.37414 | 18911 ft | 380 kts | 294° |
| 2026-05-05 11:41 | 51.62547 | -1.41282 | 19423 ft | 383 kts | 294° |
| 2026-05-05 11:41 | 51.63678 | -1.45175 | 19900 ft | 385 kts | 294° |
| 2026-05-05 11:41 | 51.64820 | -1.49117 | 20379 ft | 388 kts | 294° |
| 2026-05-05 11:41 | 51.65951 | -1.53020 | 20834 ft | 391 kts | 293° |
| 2026-05-05 11:42 | 51.67101 | -1.57011 | 21297 ft | 394 kts | 293° |
| 2026-05-05 11:42 | 51.68262 | -1.61029 | 21750 ft | 397 kts | 292° |
| 2026-05-05 11:42 | 51.69407 | -1.65090 | 22187 ft | 399 kts | 290° |
| 2026-05-05 11:42 | 51.70284 | -1.69335 | 22627 ft | 400 kts | 282° |
| 2026-05-05 11:43 | 51.70818 | -1.73729 | 23100 ft | 400 kts | 275° |
| 2026-05-05 11:43 | 51.71114 | -1.78205 | 23529 ft | 403 kts | 274° |
| 2026-05-05 11:43 | 51.71434 | -1.82713 | 23923 ft | 406 kts | 275° |
| 2026-05-05 11:43 | 51.71768 | -1.87244 | 24324 ft | 407 kts | 275° |
| 2026-05-05 11:44 | 51.72101 | -1.91791 | 24730 ft | 409 kts | 274° |
| 2026-05-05 11:44 | 51.72431 | -1.96362 | 25169 ft | 411 kts | 275° |
| 2026-05-05 11:44 | 51.72758 | -2.00950 | 25600 ft | 412 kts | 274° |
| 2026-05-05 11:44 | 51.73082 | -2.05549 | 26027 ft | 415 kts | 274° |
| 2026-05-05 11:45 | 51.73406 | -2.10189 | 26443 ft | 417 kts | 274° |
| 2026-05-05 11:45 | 51.73730 | -2.14854 | 26901 ft | 420 kts | 274° |
| 2026-05-05 11:45 | 51.74051 | -2.19496 | 27364 ft | 423 kts | 274° |
| 2026-05-05 11:45 | 51.74375 | -2.24218 | 27846 ft | 424 kts | 274° |
| 2026-05-05 11:46 | 51.74686 | -2.28768 | 28289 ft | 427 kts | 274° |
| 2026-05-05 11:46 | 51.74894 | -2.31821 | 28617 ft | 428 kts | 274° |
| 2026-05-05 11:46 | 51.75218 | -2.36622 | 29030 ft | 432 kts | 274° |
| 2026-05-05 11:46 | 51.75543 | -2.41455 | 29507 ft | 434 kts | 274° |
| 2026-05-05 11:47 | 51.75869 | -2.46322 | 30045 ft | 436 kts | 274° |
| 2026-05-05 11:47 | 51.76192 | -2.51199 | 30464 ft | 439 kts | 274° |
| 2026-05-05 11:47 | 51.76517 | -2.56122 | 30819 ft | 443 kts | 274° |
| 2026-05-05 11:47 | 51.76837 | -2.61025 | 31184 ft | 446 kts | 274° |
| 2026-05-05 11:48 | 51.77489 | -2.71077 | 31891 ft | 453 kts | 274° |
| 2026-05-05 11:48 | 51.77816 | -2.76168 | 32280 ft | 456 kts | 274° |
| 2026-05-05 11:48 | 51.78144 | -2.81304 | 32531 ft | 461 kts | 274° |
| 2026-05-05 11:49 | 51.78471 | -2.86481 | 32885 ft | 465 kts | 274° |
| 2026-05-05 11:49 | 51.78795 | -2.91635 | 33215 ft | 468 kts | 274° |
| 2026-05-05 11:49 | 51.79124 | -2.96901 | 33436 ft | 475 kts | 275° |
| 2026-05-05 11:49 | 51.79455 | -3.02230 | 33807 ft | 477 kts | 275° |
| 2026-05-05 11:50 | 51.79786 | -3.07591 | 34104 ft | 482 kts | 275° |
| 2026-05-05 11:50 | 51.80115 | -3.12990 | 34482 ft | 483 kts | 275° |
| 2026-05-05 11:50 | 51.80443 | -3.18399 | 34828 ft | 484 kts | 275° |
| 2026-05-05 11:50 | 51.80769 | -3.23823 | 35240 ft | 485 kts | 275° |
| 2026-05-05 11:51 | 51.81092 | -3.29238 | 35701 ft | 484 kts | 275° |
| 2026-05-05 11:51 | 51.81412 | -3.34639 | 36182 ft | 483 kts | 275° |
| 2026-05-05 11:51 | 51.81728 | -3.40037 | 36624 ft | 482 kts | 275° |
| 2026-05-05 11:51 | 51.82042 | -3.45434 | 37003 ft | 483 kts | 275° |
| 2026-05-05 11:52 | 51.82351 | -3.50770 | 37456 ft | 481 kts | 275° |
| 2026-05-05 11:52 | 51.82798 | -3.56120 | 37923 ft | 480 kts | 281° |
| 2026-05-05 11:52 | 51.83498 | -3.61384 | 38346 ft | 479 kts | 282° |
| 2026-05-05 11:52 | 51.84192 | -3.66658 | 38772 ft | 478 kts | 282° |
| 2026-05-05 11:53 | 51.84878 | -3.71940 | 39060 ft | 479 kts | 282° |
| 2026-05-05 11:53 | 51.85556 | -3.77206 | 39454 ft | 477 kts | 281° |
| 2026-05-05 11:53 | 51.86230 | -3.82461 | 39738 ft | 477 kts | 281° |
| 2026-05-05 11:53 | 51.86900 | -3.87711 | 39974 ft | 478 kts | 281° |
| 2026-05-05 11:54 | 51.88247 | -3.98307 | 40038 ft | 482 kts | 281° |
| 2026-05-05 11:54 | 51.89588 | -4.08935 | 40037 ft | 481 kts | 281° |